sensor_id;sensor_type;location;lat;lon;timestamp;P1;durP1;ratioP1;P2;durP2;ratioP2
4353;SDS011;11018;51.258;6.806;2024-03-22T00:00:32;48.83;;;25.25;;
4353;SDS011;11018;51.258;6.806;2024-03-22T00:02:57;49.20;;;24.88;;
4353;SDS011;11018;51.258;6.806;2024-03-22T00:05:23;57.50;;;25.65;;
4353;SDS011;11018;51.258;6.806;2024-03-22T00:07:49;52.10;;;25.43;;
4353;SDS011;11018;51.258;6.806;2024-03-22T00:10:15;55.58;;;24.83;;
4353;SDS011;11018;51.258;6.806;2024-03-22T00:12:41;57.85;;;25.23;;
4353;SDS011;11018;51.258;6.806;2024-03-22T00:15:06;51.50;;;26.17;;
4353;SDS011;11018;51.258;6.806;2024-03-22T00:17:32;49.67;;;25.17;;
4353;SDS011;11018;51.258;6.806;2024-03-22T00:19:58;56.25;;;25.75;;
4353;SDS011;11018;51.258;6.806;2024-03-22T00:22:24;56.38;;;26.05;;
4353;SDS011;11018;51.258;6.806;2024-03-22T00:24:50;55.65;;;27.42;;
4353;SDS011;11018;51.258;6.806;2024-03-22T00:27:15;55.05;;;25.25;;
4353;SDS011;11018;51.258;6.806;2024-03-22T00:29:41;51.70;;;26.40;;
4353;SDS011;11018;51.258;6.806;2024-03-22T00:32:07;54.63;;;25.70;;
4353;SDS011;11018;51.258;6.806;2024-03-22T00:34:33;55.17;;;26.60;;
4353;SDS011;11018;51.258;6.806;2024-03-22T00:36:59;59.30;;;26.08;;
4353;SDS011;11018;51.258;6.806;2024-03-22T00:39:25;51.07;;;25.70;;
4353;SDS011;11018;51.258;6.806;2024-03-22T00:41:50;50.03;;;25.60;;
4353;SDS011;11018;51.258;6.806;2024-03-22T00:44:16;54.13;;;24.80;;
4353;SDS011;11018;51.258;6.806;2024-03-22T00:46:41;57.65;;;25.88;;
4353;SDS011;11018;51.258;6.806;2024-03-22T00:49:07;51.17;;;25.60;;
4353;SDS011;11018;51.258;6.806;2024-03-22T00:51:32;56.47;;;26.50;;
4353;SDS011;11018;51.258;6.806;2024-03-22T00:53:58;54.77;;;26.07;;
4353;SDS011;11018;51.258;6.806;2024-03-22T00:56:23;55.55;;;26.35;;
4353;SDS011;11018;51.258;6.806;2024-03-22T00:58:49;60.30;;;26.70;;
4353;SDS011;11018;51.258;6.806;2024-03-22T01:01:14;55.60;;;27.00;;
4353;SDS011;11018;51.258;6.806;2024-03-22T01:03:40;57.90;;;25.70;;
4353;SDS011;11018;51.258;6.806;2024-03-22T01:06:06;54.13;;;25.63;;
4353;SDS011;11018;51.258;6.806;2024-03-22T01:08:32;61.97;;;27.17;;
4353;SDS011;11018;51.258;6.806;2024-03-22T01:10:57;53.37;;;25.37;;
4353;SDS011;11018;51.258;6.806;2024-03-22T01:13:23;55.77;;;26.97;;
4353;SDS011;11018;51.258;6.806;2024-03-22T01:15:49;51.53;;;25.40;;
4353;SDS011;11018;51.258;6.806;2024-03-22T01:18:14;56.42;;;25.27;;
4353;SDS011;11018;51.258;6.806;2024-03-22T01:20:40;51.10;;;25.13;;
4353;SDS011;11018;51.258;6.806;2024-03-22T01:23:07;53.65;;;24.60;;
4353;SDS011;11018;51.258;6.806;2024-03-22T01:25:32;54.75;;;25.50;;
4353;SDS011;11018;51.258;6.806;2024-03-22T01:27:58;57.15;;;24.33;;
4353;SDS011;11018;51.258;6.806;2024-03-22T01:30:24;51.33;;;24.27;;
4353;SDS011;11018;51.258;6.806;2024-03-22T01:32:53;50.45;;;22.92;;
4353;SDS011;11018;51.258;6.806;2024-03-22T01:35:19;48.30;;;22.77;;
4353;SDS011;11018;51.258;6.806;2024-03-22T01:37:45;56.28;;;25.10;;
4353;SDS011;11018;51.258;6.806;2024-03-22T01:40:10;51.30;;;24.03;;
4353;SDS011;11018;51.258;6.806;2024-03-22T01:42:36;51.40;;;24.30;;
4353;SDS011;11018;51.258;6.806;2024-03-22T01:45:02;49.60;;;22.70;;
4353;SDS011;11018;51.258;6.806;2024-03-22T01:47:28;47.00;;;23.20;;
4353;SDS011;11018;51.258;6.806;2024-03-22T01:49:54;48.10;;;23.50;;
4353;SDS011;11018;51.258;6.806;2024-03-22T01:52:20;50.77;;;24.63;;
4353;SDS011;11018;51.258;6.806;2024-03-22T01:54:46;50.17;;;23.13;;
4353;SDS011;11018;51.258;6.806;2024-03-22T01:57:11;50.40;;;22.87;;
4353;SDS011;11018;51.258;6.806;2024-03-22T01:59:37;51.43;;;22.37;;
4353;SDS011;11018;51.258;6.806;2024-03-22T02:02:03;50.35;;;22.67;;
4353;SDS011;11018;51.258;6.806;2024-03-22T02:04:29;51.95;;;22.65;;
4353;SDS011;11018;51.258;6.806;2024-03-22T02:06:54;50.75;;;23.13;;
4353;SDS011;11018;51.258;6.806;2024-03-22T02:09:20;50.40;;;22.57;;
4353;SDS011;11018;51.258;6.806;2024-03-22T02:11:46;47.53;;;22.05;;
4353;SDS011;11018;51.258;6.806;2024-03-22T02:14:12;49.58;;;23.35;;
4353;SDS011;11018;51.258;6.806;2024-03-22T02:16:39;45.65;;;21.73;;
4353;SDS011;11018;51.258;6.806;2024-03-22T02:19:05;45.58;;;22.15;;
4353;SDS011;11018;51.258;6.806;2024-03-22T02:21:31;46.88;;;22.40;;
4353;SDS011;11018;51.258;6.806;2024-03-22T02:23:57;43.53;;;22.50;;
4353;SDS011;11018;51.258;6.806;2024-03-22T02:26:22;45.65;;;22.95;;
4353;SDS011;11018;51.258;6.806;2024-03-22T02:28:48;46.07;;;21.53;;
4353;SDS011;11018;51.258;6.806;2024-03-22T02:31:13;46.33;;;21.80;;
4353;SDS011;11018;51.258;6.806;2024-03-22T02:33:39;48.47;;;22.90;;
4353;SDS011;11018;51.258;6.806;2024-03-22T02:36:05;52.63;;;22.90;;
4353;SDS011;11018;51.258;6.806;2024-03-22T02:38:30;40.80;;;20.63;;
4353;SDS011;11018;51.258;6.806;2024-03-22T02:40:57;41.45;;;22.35;;
4353;SDS011;11018;51.258;6.806;2024-03-22T02:43:23;44.95;;;20.90;;
4353;SDS011;11018;51.258;6.806;2024-03-22T02:45:48;47.90;;;23.10;;
4353;SDS011;11018;51.258;6.806;2024-03-22T02:48:14;39.15;;;20.85;;
4353;SDS011;11018;51.258;6.806;2024-03-22T02:50:40;40.35;;;20.67;;
4353;SDS011;11018;51.258;6.806;2024-03-22T02:53:06;42.95;;;21.30;;
4353;SDS011;11018;51.258;6.806;2024-03-22T02:55:40;44.55;;;22.20;;
4353;SDS011;11018;51.258;6.806;2024-03-22T02:58:06;40.88;;;21.58;;
4353;SDS011;11018;51.258;6.806;2024-03-22T03:00:39;43.78;;;21.05;;
4353;SDS011;11018;51.258;6.806;2024-03-22T03:03:07;44.67;;;21.30;;
4353;SDS011;11018;51.258;6.806;2024-03-22T03:05:33;42.20;;;20.80;;
4353;SDS011;11018;51.258;6.806;2024-03-22T03:08:00;43.30;;;21.83;;
4353;SDS011;11018;51.258;6.806;2024-03-22T03:10:25;41.07;;;21.80;;
4353;SDS011;11018;51.258;6.806;2024-03-22T03:12:51;43.58;;;21.48;;
4353;SDS011;11018;51.258;6.806;2024-03-22T03:15:19;44.55;;;21.48;;
4353;SDS011;11018;51.258;6.806;2024-03-22T03:17:44;43.60;;;20.67;;
4353;SDS011;11018;51.258;6.806;2024-03-22T03:20:10;46.77;;;21.30;;
4353;SDS011;11018;51.258;6.806;2024-03-22T03:22:38;43.40;;;20.70;;
4353;SDS011;11018;51.258;6.806;2024-03-22T03:25:07;41.60;;;20.83;;
4353;SDS011;11018;51.258;6.806;2024-03-22T03:27:33;43.22;;;20.50;;
4353;SDS011;11018;51.258;6.806;2024-03-22T03:29:59;43.03;;;20.80;;
4353;SDS011;11018;51.258;6.806;2024-03-22T03:32:24;39.00;;;19.52;;
4353;SDS011;11018;51.258;6.806;2024-03-22T03:34:51;39.45;;;19.85;;
4353;SDS011;11018;51.258;6.806;2024-03-22T03:37:16;41.20;;;20.75;;
4353;SDS011;11018;51.258;6.806;2024-03-22T03:39:42;40.87;;;20.37;;
4353;SDS011;11018;51.258;6.806;2024-03-22T03:42:07;43.50;;;20.90;;
4353;SDS011;11018;51.258;6.806;2024-03-22T03:44:33;41.93;;;19.30;;
4353;SDS011;11018;51.258;6.806;2024-03-22T03:47:00;41.15;;;19.30;;
4353;SDS011;11018;51.258;6.806;2024-03-22T03:49:26;40.97;;;20.20;;
4353;SDS011;11018;51.258;6.806;2024-03-22T03:51:52;41.80;;;20.23;;
4353;SDS011;11018;51.258;6.806;2024-03-22T03:54:17;41.78;;;20.77;;
4353;SDS011;11018;51.258;6.806;2024-03-22T03:56:43;45.05;;;20.98;;
4353;SDS011;11018;51.258;6.806;2024-03-22T03:59:08;36.30;;;19.40;;
4353;SDS011;11018;51.258;6.806;2024-03-22T04:01:34;42.97;;;20.03;;
4353;SDS011;11018;51.258;6.806;2024-03-22T04:04:00;41.27;;;19.50;;
4353;SDS011;11018;51.258;6.806;2024-03-22T04:06:25;40.20;;;20.30;;
4353;SDS011;11018;51.258;6.806;2024-03-22T04:08:51;42.88;;;20.83;;
4353;SDS011;11018;51.258;6.806;2024-03-22T04:11:16;37.20;;;19.17;;
4353;SDS011;11018;51.258;6.806;2024-03-22T04:13:42;42.50;;;21.10;;
4353;SDS011;11018;51.258;6.806;2024-03-22T04:16:08;40.67;;;20.35;;
4353;SDS011;11018;51.258;6.806;2024-03-22T04:18:33;40.03;;;20.40;;
4353;SDS011;11018;51.258;6.806;2024-03-22T04:20:59;42.27;;;19.63;;
4353;SDS011;11018;51.258;6.806;2024-03-22T04:23:25;41.83;;;21.05;;
4353;SDS011;11018;51.258;6.806;2024-03-22T04:25:51;40.60;;;20.55;;
4353;SDS011;11018;51.258;6.806;2024-03-22T04:28:18;40.78;;;19.67;;
4353;SDS011;11018;51.258;6.806;2024-03-22T04:30:44;40.33;;;19.47;;
4353;SDS011;11018;51.258;6.806;2024-03-22T04:33:30;35.97;;;20.00;;
4353;SDS011;11018;51.258;6.806;2024-03-22T04:35:56;37.25;;;19.58;;
4353;SDS011;11018;51.258;6.806;2024-03-22T04:38:23;37.03;;;19.45;;
4353;SDS011;11018;51.258;6.806;2024-03-22T04:40:49;37.25;;;19.08;;
4353;SDS011;11018;51.258;6.806;2024-03-22T04:43:15;36.30;;;18.60;;
4353;SDS011;11018;51.258;6.806;2024-03-22T04:45:42;38.92;;;18.88;;
4353;SDS011;11018;51.258;6.806;2024-03-22T04:48:08;38.42;;;18.90;;
4353;SDS011;11018;51.258;6.806;2024-03-22T04:50:34;46.90;;;19.70;;
4353;SDS011;11018;51.258;6.806;2024-03-22T04:53:00;38.30;;;18.80;;
4353;SDS011;11018;51.258;6.806;2024-03-22T04:55:26;36.90;;;19.30;;
4353;SDS011;11018;51.258;6.806;2024-03-22T04:57:52;37.53;;;18.30;;
4353;SDS011;11018;51.258;6.806;2024-03-22T05:00:17;36.40;;;18.60;;
4353;SDS011;11018;51.258;6.806;2024-03-22T05:02:43;35.97;;;19.27;;
4353;SDS011;11018;51.258;6.806;2024-03-22T05:05:09;36.58;;;18.95;;
4353;SDS011;11018;51.258;6.806;2024-03-22T05:07:35;36.72;;;18.77;;
4353;SDS011;11018;51.258;6.806;2024-03-22T05:10:01;32.72;;;17.70;;
4353;SDS011;11018;51.258;6.806;2024-03-22T05:12:27;40.67;;;18.73;;
4353;SDS011;11018;51.258;6.806;2024-03-22T05:14:52;36.40;;;19.37;;
4353;SDS011;11018;51.258;6.806;2024-03-22T05:17:18;36.60;;;19.57;;
4353;SDS011;11018;51.258;6.806;2024-03-22T05:19:43;37.30;;;18.40;;
4353;SDS011;11018;51.258;6.806;2024-03-22T05:22:09;38.70;;;18.48;;
4353;SDS011;11018;51.258;6.806;2024-03-22T05:24:34;34.50;;;17.60;;
4353;SDS011;11018;51.258;6.806;2024-03-22T05:27:00;31.73;;;18.40;;
4353;SDS011;11018;51.258;6.806;2024-03-22T05:29:26;32.60;;;18.53;;
4353;SDS011;11018;51.258;6.806;2024-03-22T05:31:51;28.47;;;17.17;;
4353;SDS011;11018;51.258;6.806;2024-03-22T05:34:17;36.35;;;18.20;;
4353;SDS011;11018;51.258;6.806;2024-03-22T05:36:44;34.92;;;17.95;;
4353;SDS011;11018;51.258;6.806;2024-03-22T05:39:10;35.03;;;18.25;;
4353;SDS011;11018;51.258;6.806;2024-03-22T05:41:36;32.17;;;18.30;;
4353;SDS011;11018;51.258;6.806;2024-03-22T05:44:05;29.73;;;17.38;;
4353;SDS011;11018;51.258;6.806;2024-03-22T05:46:31;33.75;;;18.30;;
4353;SDS011;11018;51.258;6.806;2024-03-22T05:48:59;39.33;;;17.88;;
4353;SDS011;11018;51.258;6.806;2024-03-22T05:51:25;36.00;;;16.77;;
4353;SDS011;11018;51.258;6.806;2024-03-22T05:53:51;34.58;;;18.45;;
4353;SDS011;11018;51.258;6.806;2024-03-22T05:56:17;29.67;;;17.73;;
4353;SDS011;11018;51.258;6.806;2024-03-22T05:58:42;32.17;;;17.47;;
4353;SDS011;11018;51.258;6.806;2024-03-22T06:01:08;35.57;;;17.97;;
4353;SDS011;11018;51.258;6.806;2024-03-22T06:03:33;32.43;;;17.20;;
4353;SDS011;11018;51.258;6.806;2024-03-22T06:05:59;30.40;;;16.53;;
4353;SDS011;11018;51.258;6.806;2024-03-22T06:08:28;31.90;;;17.42;;
4353;SDS011;11018;51.258;6.806;2024-03-22T06:10:54;29.73;;;17.60;;
4353;SDS011;11018;51.258;6.806;2024-03-22T06:13:20;35.42;;;16.30;;
4353;SDS011;11018;51.258;6.806;2024-03-22T06:15:48;31.43;;;17.80;;
4353;SDS011;11018;51.258;6.806;2024-03-22T06:18:14;30.00;;;17.13;;
4353;SDS011;11018;51.258;6.806;2024-03-22T06:20:40;34.73;;;18.67;;
4353;SDS011;11018;51.258;6.806;2024-03-22T06:23:05;31.07;;;17.17;;
4353;SDS011;11018;51.258;6.806;2024-03-22T06:25:32;28.48;;;16.63;;
4353;SDS011;11018;51.258;6.806;2024-03-22T06:27:57;32.85;;;17.30;;
4353;SDS011;11018;51.258;6.806;2024-03-22T06:30:23;29.80;;;17.58;;
4353;SDS011;11018;51.258;6.806;2024-03-22T06:32:48;32.73;;;17.53;;
4353;SDS011;11018;51.258;6.806;2024-03-22T06:35:14;37.10;;;18.43;;
4353;SDS011;11018;51.258;6.806;2024-03-22T06:37:40;34.37;;;17.87;;
4353;SDS011;11018;51.258;6.806;2024-03-22T06:40:06;31.80;;;16.25;;
4353;SDS011;11018;51.258;6.806;2024-03-22T06:42:35;38.60;;;17.50;;
4353;SDS011;11018;51.258;6.806;2024-03-22T06:45:01;36.20;;;17.67;;
4353;SDS011;11018;51.258;6.806;2024-03-22T06:47:27;36.72;;;18.40;;
4353;SDS011;11018;51.258;6.806;2024-03-22T06:49:53;31.05;;;17.73;;
4353;SDS011;11018;51.258;6.806;2024-03-22T06:52:18;33.20;;;16.87;;
4353;SDS011;11018;51.258;6.806;2024-03-22T06:54:45;33.30;;;16.80;;
4353;SDS011;11018;51.258;6.806;2024-03-22T06:57:10;34.95;;;17.42;;
4353;SDS011;11018;51.258;6.806;2024-03-22T06:59:36;29.10;;;16.80;;
4353;SDS011;11018;51.258;6.806;2024-03-22T07:02:02;32.67;;;17.10;;
4353;SDS011;11018;51.258;6.806;2024-03-22T07:04:27;32.73;;;17.17;;
4353;SDS011;11018;51.258;6.806;2024-03-22T07:06:53;35.10;;;18.10;;
4353;SDS011;11018;51.258;6.806;2024-03-22T07:09:18;30.05;;;17.35;;
4353;SDS011;11018;51.258;6.806;2024-03-22T07:11:44;33.53;;;17.77;;
4353;SDS011;11018;51.258;6.806;2024-03-22T07:14:10;29.93;;;17.53;;
4353;SDS011;11018;51.258;6.806;2024-03-22T07:16:35;38.30;;;19.20;;
4353;SDS011;11018;51.258;6.806;2024-03-22T07:19:02;33.40;;;19.08;;
4353;SDS011;11018;51.258;6.806;2024-03-22T07:21:28;41.93;;;19.70;;
4353;SDS011;11018;51.258;6.806;2024-03-22T07:23:54;32.65;;;19.70;;
4353;SDS011;11018;51.258;6.806;2024-03-22T07:26:19;35.27;;;19.60;;
4353;SDS011;11018;51.258;6.806;2024-03-22T07:28:45;36.80;;;21.30;;
4353;SDS011;11018;51.258;6.806;2024-03-22T07:31:11;38.22;;;21.00;;
4353;SDS011;11018;51.258;6.806;2024-03-22T07:33:36;38.80;;;21.25;;
4353;SDS011;11018;51.258;6.806;2024-03-22T07:36:04;42.05;;;21.83;;
4353;SDS011;11018;51.258;6.806;2024-03-22T07:38:30;44.53;;;22.00;;
4353;SDS011;11018;51.258;6.806;2024-03-22T07:40:55;44.43;;;22.67;;
4353;SDS011;11018;51.258;6.806;2024-03-22T07:43:21;36.30;;;20.40;;
4353;SDS011;11018;51.258;6.806;2024-03-22T07:45:46;41.60;;;22.05;;
4353;SDS011;11018;51.258;6.806;2024-03-22T07:48:12;37.67;;;21.57;;
4353;SDS011;11018;51.258;6.806;2024-03-22T07:50:37;47.60;;;23.07;;
4353;SDS011;11018;51.258;6.806;2024-03-22T07:53:03;44.85;;;23.17;;
4353;SDS011;11018;51.258;6.806;2024-03-22T07:55:29;38.22;;;22.83;;
4353;SDS011;11018;51.258;6.806;2024-03-22T07:57:54;41.10;;;22.97;;
4353;SDS011;11018;51.258;6.806;2024-03-22T08:00:21;41.28;;;22.77;;
4353;SDS011;11018;51.258;6.806;2024-03-22T08:02:46;42.88;;;22.20;;
4353;SDS011;11018;51.258;6.806;2024-03-22T08:05:12;41.42;;;22.80;;
4353;SDS011;11018;51.258;6.806;2024-03-22T08:07:38;45.20;;;24.30;;
4353;SDS011;11018;51.258;6.806;2024-03-22T08:10:04;41.10;;;24.13;;
4353;SDS011;11018;51.258;6.806;2024-03-22T08:12:29;49.92;;;21.92;;
4353;SDS011;11018;51.258;6.806;2024-03-22T08:14:55;46.53;;;23.37;;
4353;SDS011;11018;51.258;6.806;2024-03-22T08:17:20;39.08;;;21.92;;
4353;SDS011;11018;51.258;6.806;2024-03-22T08:19:46;43.08;;;23.20;;
4353;SDS011;11018;51.258;6.806;2024-03-22T08:22:12;41.93;;;23.30;;
4353;SDS011;11018;51.258;6.806;2024-03-22T08:24:37;40.93;;;23.23;;
4353;SDS011;11018;51.258;6.806;2024-03-22T08:27:03;39.83;;;21.98;;
4353;SDS011;11018;51.258;6.806;2024-03-22T08:29:29;38.97;;;22.40;;
4353;SDS011;11018;51.258;6.806;2024-03-22T08:31:54;43.77;;;22.37;;
4353;SDS011;11018;51.258;6.806;2024-03-22T08:34:20;38.17;;;21.20;;
4353;SDS011;11018;51.258;6.806;2024-03-22T08:36:46;32.85;;;20.13;;
4353;SDS011;11018;51.258;6.806;2024-03-22T08:39:12;38.00;;;21.33;;
4353;SDS011;11018;51.258;6.806;2024-03-22T08:41:37;38.67;;;21.90;;
4353;SDS011;11018;51.258;6.806;2024-03-22T08:44:03;39.97;;;20.90;;
4353;SDS011;11018;51.258;6.806;2024-03-22T08:46:29;37.63;;;20.45;;
4353;SDS011;11018;51.258;6.806;2024-03-22T08:48:57;34.80;;;20.02;;
4353;SDS011;11018;51.258;6.806;2024-03-22T08:51:22;45.50;;;20.55;;
4353;SDS011;11018;51.258;6.806;2024-03-22T08:53:48;37.33;;;21.03;;
4353;SDS011;11018;51.258;6.806;2024-03-22T08:56:13;32.77;;;18.73;;
4353;SDS011;11018;51.258;6.806;2024-03-22T08:58:39;34.20;;;19.67;;
4353;SDS011;11018;51.258;6.806;2024-03-22T09:01:05;36.65;;;18.73;;
4353;SDS011;11018;51.258;6.806;2024-03-22T09:03:31;36.80;;;19.55;;
4353;SDS011;11018;51.258;6.806;2024-03-22T09:05:56;30.85;;;16.77;;
4353;SDS011;11018;51.258;6.806;2024-03-22T09:08:23;33.30;;;16.75;;
4353;SDS011;11018;51.258;6.806;2024-03-22T09:10:48;31.88;;;17.20;;
4353;SDS011;11018;51.258;6.806;2024-03-22T09:13:14;27.30;;;16.38;;
4353;SDS011;11018;51.258;6.806;2024-03-22T09:15:39;31.50;;;17.30;;
4353;SDS011;11018;51.258;6.806;2024-03-22T09:18:05;28.73;;;16.53;;
4353;SDS011;11018;51.258;6.806;2024-03-22T09:20:31;32.63;;;17.20;;
4353;SDS011;11018;51.258;6.806;2024-03-22T09:22:57;30.67;;;17.48;;
4353;SDS011;11018;51.258;6.806;2024-03-22T09:25:25;28.92;;;17.67;;
4353;SDS011;11018;51.258;6.806;2024-03-22T09:27:51;29.95;;;17.90;;
4353;SDS011;11018;51.258;6.806;2024-03-22T09:30:16;37.27;;;18.57;;
4353;SDS011;11018;51.258;6.806;2024-03-22T09:32:42;29.73;;;16.67;;
4353;SDS011;11018;51.258;6.806;2024-03-22T09:35:08;32.72;;;17.63;;
4353;SDS011;11018;51.258;6.806;2024-03-22T09:37:34;30.95;;;15.88;;
4353;SDS011;11018;51.258;6.806;2024-03-22T09:39:59;29.42;;;16.40;;
4353;SDS011;11018;51.258;6.806;2024-03-22T09:42:26;23.10;;;13.73;;
4353;SDS011;11018;51.258;6.806;2024-03-22T09:44:57;25.95;;;15.35;;
4353;SDS011;11018;51.258;6.806;2024-03-22T09:47:22;22.75;;;14.07;;
4353;SDS011;11018;51.258;6.806;2024-03-22T09:49:50;24.55;;;13.63;;
4353;SDS011;11018;51.258;6.806;2024-03-22T09:52:19;26.60;;;13.83;;
4353;SDS011;11018;51.258;6.806;2024-03-22T09:54:45;22.50;;;12.95;;
4353;SDS011;11018;51.258;6.806;2024-03-22T09:57:14;23.63;;;13.52;;
4353;SDS011;11018;51.258;6.806;2024-03-22T09:59:41;19.13;;;11.32;;
4353;SDS011;11018;51.258;6.806;2024-03-22T10:02:09;20.02;;;12.25;;
4353;SDS011;11018;51.258;6.806;2024-03-22T10:04:37;22.40;;;12.63;;
4353;SDS011;11018;51.258;6.806;2024-03-22T10:07:03;22.15;;;13.13;;
4353;SDS011;11018;51.258;6.806;2024-03-22T10:09:29;23.95;;;13.88;;
4353;SDS011;11018;51.258;6.806;2024-03-22T10:11:56;29.30;;;14.13;;
4353;SDS011;11018;51.258;6.806;2024-03-22T10:14:22;21.27;;;13.15;;
4353;SDS011;11018;51.258;6.806;2024-03-22T10:16:50;23.65;;;13.30;;
4353;SDS011;11018;51.258;6.806;2024-03-22T10:19:18;22.63;;;12.85;;
4353;SDS011;11018;51.258;6.806;2024-03-22T10:21:48;23.58;;;12.90;;
4353;SDS011;11018;51.258;6.806;2024-03-22T10:24:28;22.87;;;12.53;;
4353;SDS011;11018;51.258;6.806;2024-03-22T10:26:54;27.77;;;13.10;;
4353;SDS011;11018;51.258;6.806;2024-03-22T10:29:21;28.30;;;13.70;;
4353;SDS011;11018;51.258;6.806;2024-03-22T10:31:53;27.65;;;14.80;;
4353;SDS011;11018;51.258;6.806;2024-03-22T10:34:22;23.33;;;13.48;;
4353;SDS011;11018;51.258;6.806;2024-03-22T10:36:49;21.90;;;13.33;;
4353;SDS011;11018;51.258;6.806;2024-03-22T10:39:16;23.90;;;14.37;;
4353;SDS011;11018;51.258;6.806;2024-03-22T10:41:46;24.50;;;15.30;;
4353;SDS011;11018;51.258;6.806;2024-03-22T10:44:12;29.00;;;15.60;;
4353;SDS011;11018;51.258;6.806;2024-03-22T10:46:39;28.58;;;15.38;;
4353;SDS011;11018;51.258;6.806;2024-03-22T10:49:18;27.90;;;14.52;;
4353;SDS011;11018;51.258;6.806;2024-03-22T10:51:57;29.10;;;15.13;;
4353;SDS011;11018;51.258;6.806;2024-03-22T10:54:27;26.60;;;15.00;;
4353;SDS011;11018;51.258;6.806;2024-03-22T10:56:58;27.80;;;14.73;;
4353;SDS011;11018;51.258;6.806;2024-03-22T10:59:25;26.05;;;13.90;;
4353;SDS011;11018;51.258;6.806;2024-03-22T11:01:50;25.80;;;14.63;;
4353;SDS011;11018;51.258;6.806;2024-03-22T11:04:17;32.70;;;14.82;;
4353;SDS011;11018;51.258;6.806;2024-03-22T11:06:52;22.27;;;13.53;;
4353;SDS011;11018;51.258;6.806;2024-03-22T11:09:24;29.13;;;14.00;;
4353;SDS011;11018;51.258;6.806;2024-03-22T11:11:54;26.30;;;15.07;;
4353;SDS011;11018;51.258;6.806;2024-03-22T11:14:24;28.10;;;15.23;;
4353;SDS011;11018;51.258;6.806;2024-03-22T11:16:50;32.77;;;15.07;;
4353;SDS011;11018;51.258;6.806;2024-03-22T11:19:16;27.73;;;14.80;;
4353;SDS011;11018;51.258;6.806;2024-03-22T11:21:41;27.00;;;15.25;;
4353;SDS011;11018;51.258;6.806;2024-03-22T11:24:07;25.85;;;14.43;;
4353;SDS011;11018;51.258;6.806;2024-03-22T11:26:33;25.83;;;14.40;;
4353;SDS011;11018;51.258;6.806;2024-03-22T11:28:59;26.58;;;15.23;;
4353;SDS011;11018;51.258;6.806;2024-03-22T11:31:25;29.23;;;14.82;;
4353;SDS011;11018;51.258;6.806;2024-03-22T11:33:54;28.42;;;14.68;;
4353;SDS011;11018;51.258;6.806;2024-03-22T11:36:20;23.50;;;14.93;;
4353;SDS011;11018;51.258;6.806;2024-03-22T11:38:46;29.67;;;16.38;;
4353;SDS011;11018;51.258;6.806;2024-03-22T11:41:25;23.65;;;15.15;;
4353;SDS011;11018;51.258;6.806;2024-03-22T11:43:53;29.15;;;16.85;;
4353;SDS011;11018;51.258;6.806;2024-03-22T11:46:20;31.10;;;17.73;;
4353;SDS011;11018;51.258;6.806;2024-03-22T11:48:52;30.92;;;16.98;;
4353;SDS011;11018;51.258;6.806;2024-03-22T11:51:18;28.80;;;16.93;;
4353;SDS011;11018;51.258;6.806;2024-03-22T11:53:50;30.17;;;17.80;;
4353;SDS011;11018;51.258;6.806;2024-03-22T11:56:17;29.40;;;17.37;;
4353;SDS011;11018;51.258;6.806;2024-03-22T11:58:45;30.60;;;18.38;;
4353;SDS011;11018;51.258;6.806;2024-03-22T12:01:12;33.85;;;18.15;;
4353;SDS011;11018;51.258;6.806;2024-03-22T12:03:38;31.00;;;17.83;;
4353;SDS011;11018;51.258;6.806;2024-03-22T12:06:05;30.15;;;16.88;;
4353;SDS011;11018;51.258;6.806;2024-03-22T12:08:31;29.17;;;17.30;;
4353;SDS011;11018;51.258;6.806;2024-03-22T12:10:56;30.50;;;17.60;;
4353;SDS011;11018;51.258;6.806;2024-03-22T12:13:22;34.33;;;18.73;;
4353;SDS011;11018;51.258;6.806;2024-03-22T12:15:47;28.70;;;17.80;;
4353;SDS011;11018;51.258;6.806;2024-03-22T12:18:14;34.40;;;18.70;;
4353;SDS011;11018;51.258;6.806;2024-03-22T12:20:39;35.67;;;18.50;;
4353;SDS011;11018;51.258;6.806;2024-03-22T12:23:05;32.22;;;17.80;;
4353;SDS011;11018;51.258;6.806;2024-03-22T12:25:30;29.10;;;16.90;;
4353;SDS011;11018;51.258;6.806;2024-03-22T12:27:56;33.40;;;17.53;;
4353;SDS011;11018;51.258;6.806;2024-03-22T12:30:21;31.42;;;17.52;;
4353;SDS011;11018;51.258;6.806;2024-03-22T12:32:47;28.73;;;16.63;;
4353;SDS011;11018;51.258;6.806;2024-03-22T12:35:12;31.60;;;17.93;;
4353;SDS011;11018;51.258;6.806;2024-03-22T12:37:38;29.15;;;16.95;;
4353;SDS011;11018;51.258;6.806;2024-03-22T12:40:04;30.75;;;17.90;;
4353;SDS011;11018;51.258;6.806;2024-03-22T12:42:33;30.73;;;15.40;;
4353;SDS011;11018;51.258;6.806;2024-03-22T12:44:59;29.08;;;14.63;;
4353;SDS011;11018;51.258;6.806;2024-03-22T12:47:24;27.15;;;14.93;;
4353;SDS011;11018;51.258;6.806;2024-03-22T12:49:50;28.27;;;15.02;;
4353;SDS011;11018;51.258;6.806;2024-03-22T12:52:16;27.30;;;14.23;;
4353;SDS011;11018;51.258;6.806;2024-03-22T12:54:41;26.90;;;13.57;;
4353;SDS011;11018;51.258;6.806;2024-03-22T12:57:07;24.15;;;13.00;;
4353;SDS011;11018;51.258;6.806;2024-03-22T12:59:33;26.50;;;14.68;;
4353;SDS011;11018;51.258;6.806;2024-03-22T13:01:59;21.45;;;12.70;;
4353;SDS011;11018;51.258;6.806;2024-03-22T13:04:26;23.00;;;11.82;;
4353;SDS011;11018;51.258;6.806;2024-03-22T13:06:52;22.58;;;11.70;;
4353;SDS011;11018;51.258;6.806;2024-03-22T13:09:17;22.77;;;11.90;;
4353;SDS011;11018;51.258;6.806;2024-03-22T13:11:46;20.98;;;11.95;;
4353;SDS011;11018;51.258;6.806;2024-03-22T13:14:12;22.23;;;12.23;;
4353;SDS011;11018;51.258;6.806;2024-03-22T13:16:39;21.70;;;12.30;;
4353;SDS011;11018;51.258;6.806;2024-03-22T13:19:05;20.77;;;10.67;;
4353;SDS011;11018;51.258;6.806;2024-03-22T13:21:33;22.00;;;11.10;;
4353;SDS011;11018;51.258;6.806;2024-03-22T13:23:59;22.98;;;11.75;;
4353;SDS011;11018;51.258;6.806;2024-03-22T13:26:25;22.77;;;11.73;;
4353;SDS011;11018;51.258;6.806;2024-03-22T13:28:50;21.85;;;13.13;;
4353;SDS011;11018;51.258;6.806;2024-03-22T13:31:16;23.65;;;11.77;;
4353;SDS011;11018;51.258;6.806;2024-03-22T13:33:42;24.33;;;11.43;;
4353;SDS011;11018;51.258;6.806;2024-03-22T13:36:08;22.90;;;12.67;;
4353;SDS011;11018;51.258;6.806;2024-03-22T13:38:33;24.05;;;12.98;;
4353;SDS011;11018;51.258;6.806;2024-03-22T13:40:59;25.95;;;13.70;;
4353;SDS011;11018;51.258;6.806;2024-03-22T13:43:26;24.80;;;13.10;;
4353;SDS011;11018;51.258;6.806;2024-03-22T13:45:54;27.40;;;12.70;;
4353;SDS011;11018;51.258;6.806;2024-03-22T13:48:24;30.80;;;14.38;;
4353;SDS011;11018;51.258;6.806;2024-03-22T13:50:50;23.52;;;14.52;;
4353;SDS011;11018;51.258;6.806;2024-03-22T13:53:17;24.20;;;12.70;;
4353;SDS011;11018;51.258;6.806;2024-03-22T13:55:43;25.87;;;14.37;;
4353;SDS011;11018;51.258;6.806;2024-03-22T13:58:09;26.30;;;14.00;;
4353;SDS011;11018;51.258;6.806;2024-03-22T14:00:34;25.65;;;14.30;;
4353;SDS011;11018;51.258;6.806;2024-03-22T14:03:01;30.30;;;15.98;;
4353;SDS011;11018;51.258;6.806;2024-03-22T14:05:27;31.70;;;15.60;;
4353;SDS011;11018;51.258;6.806;2024-03-22T14:07:52;27.10;;;15.30;;
4353;SDS011;11018;51.258;6.806;2024-03-22T14:10:18;29.30;;;14.70;;
4353;SDS011;11018;51.258;6.806;2024-03-22T14:12:45;28.90;;;15.60;;
4353;SDS011;11018;51.258;6.806;2024-03-22T14:15:11;32.95;;;18.35;;
4353;SDS011;11018;51.258;6.806;2024-03-22T14:17:37;25.48;;;13.65;;
4353;SDS011;11018;51.258;6.806;2024-03-22T14:20:03;25.23;;;14.52;;
4353;SDS011;11018;51.258;6.806;2024-03-22T14:22:37;24.92;;;14.88;;
4353;SDS011;11018;51.258;6.806;2024-03-22T14:25:03;26.10;;;14.20;;
4353;SDS011;11018;51.258;6.806;2024-03-22T14:27:30;26.02;;;14.10;;